sensor_id;sensor_type;location;lat;lon;timestamp;pressure;altitude;pressure_sealevel;temperature;humidity
82353;BME280;71954;47.430;18.920;2023-08-17T00:00:34;100130.56;;;21.09;81.81
82353;BME280;71954;47.430;18.920;2023-08-17T00:03:00;100125.34;;;21.07;81.93
82353;BME280;71954;47.430;18.920;2023-08-17T00:05:27;100126.19;;;21.08;81.88
82353;BME280;71954;47.430;18.920;2023-08-17T00:07:53;100129.91;;;21.07;82.09
82353;BME280;71954;47.430;18.920;2023-08-17T00:10:20;100123.50;;;21.08;81.91
82353;BME280;71954;47.430;18.920;2023-08-17T00:12:46;100120.81;;;21.08;81.37
82353;BME280;71954;47.430;18.920;2023-08-17T00:15:13;100122.47;;;21.09;81.53
82353;BME280;71954;47.430;18.920;2023-08-17T00:17:39;100122.47;;;21.09;81.23
82353;BME280;71954;47.430;18.920;2023-08-17T00:20:06;100119.38;;;21.12;81.27
82353;BME280;71954;47.430;18.920;2023-08-17T00:22:33;100109.63;;;21.11;80.99
82353;BME280;71954;47.430;18.920;2023-08-17T00:24:59;100121.06;;;21.13;80.89
82353;BME280;71954;47.430;18.920;2023-08-17T00:27:26;100116.38;;;21.15;80.80
82353;BME280;71954;47.430;18.920;2023-08-17T00:29:53;100101.16;;;21.14;80.82
82353;BME280;71954;47.430;18.920;2023-08-17T00:32:19;100101.00;;;21.16;81.24
82353;BME280;71954;47.430;18.920;2023-08-17T00:34:46;100105.16;;;21.18;80.82
82353;BME280;71954;47.430;18.920;2023-08-17T00:37:13;100100.59;;;21.19;81.11
82353;BME280;71954;47.430;18.920;2023-08-17T00:39:39;100091.50;;;21.20;80.82
82353;BME280;71954;47.430;18.920;2023-08-17T00:42:06;100096.88;;;21.20;80.96
82353;BME280;71954;47.430;18.920;2023-08-17T00:44:34;100095.03;;;21.20;81.55
82353;BME280;71954;47.430;18.920;2023-08-17T00:47:01;100094.38;;;21.18;81.45
82353;BME280;71954;47.430;18.920;2023-08-17T00:49:27;100101.81;;;21.16;81.35
82353;BME280;71954;47.430;18.920;2023-08-17T00:51:54;100100.78;;;21.17;81.38
82353;BME280;71954;47.430;18.920;2023-08-17T00:54:24;100100.78;;;21.17;81.02
82353;BME280;71954;47.430;18.920;2023-08-17T00:56:52;100111.41;;;21.19;81.13
82353;BME280;71954;47.430;18.920;2023-08-17T00:59:19;100113.44;;;21.17;81.37
82353;BME280;71954;47.430;18.920;2023-08-17T01:01:46;100117.34;;;21.14;81.61
82353;BME280;71954;47.430;18.920;2023-08-17T01:04:14;100115.66;;;21.13;81.45
82353;BME280;71954;47.430;18.920;2023-08-17T01:06:40;100121.06;;;21.13;80.97
82353;BME280;71954;47.430;18.920;2023-08-17T01:09:08;100121.75;;;21.15;80.85
82353;BME280;71954;47.430;18.920;2023-08-17T01:14:43;100129.47;;;21.18;80.83
82353;BME280;71954;47.430;18.920;2023-08-17T01:17:26;100131.31;;;21.18;80.73
82353;BME280;71954;47.430;18.920;2023-08-17T01:19:57;100137.09;;;21.15;81.02
82353;BME280;71954;47.430;18.920;2023-08-17T01:22:26;100137.97;;;21.15;80.75
82353;BME280;71954;47.430;18.920;2023-08-17T01:24:56;100128.31;;;21.12;80.77
82353;BME280;71954;47.430;18.920;2023-08-17T01:27:29;100137.44;;;21.11;80.93
82353;BME280;71954;47.430;18.920;2023-08-17T01:29:55;100131.59;;;21.08;80.88
82353;BME280;71954;47.430;18.920;2023-08-17T01:32:28;100129.91;;;21.07;80.84
82353;BME280;71954;47.430;18.920;2023-08-17T01:35:14;100120.97;;;21.06;80.67
82353;BME280;71954;47.430;18.920;2023-08-17T01:37:42;100127.41;;;21.05;81.16
82353;BME280;71954;47.430;18.920;2023-08-17T01:40:11;100123.03;;;21.04;81.00
82353;BME280;71954;47.430;18.920;2023-08-17T01:42:39;100122.19;;;21.04;81.07
82353;BME280;71954;47.430;18.920;2023-08-17T01:45:06;100117.34;;;20.99;81.46
82353;BME280;71954;47.430;18.920;2023-08-17T01:47:33;100114.84;;;20.98;81.78
82353;BME280;71954;47.430;18.920;2023-08-17T01:49:59;100113.19;;;20.97;81.58
82353;BME280;71954;47.430;18.920;2023-08-17T01:52:27;100111.31;;;20.97;81.53
82353;BME280;71954;47.430;18.920;2023-08-17T01:54:54;100105.72;;;20.99;81.64
82353;BME280;71954;47.430;18.920;2023-08-17T01:57:21;100113.63;;;21.00;81.59
82353;BME280;71954;47.430;18.920;2023-08-17T01:59:48;100107.22;;;21.01;81.52
82353;BME280;71954;47.430;18.920;2023-08-17T02:02:14;100116.78;;;21.04;81.78
82353;BME280;71954;47.430;18.920;2023-08-17T02:04:41;100115.75;;;21.05;82.07
82353;BME280;71954;47.430;18.920;2023-08-17T02:07:07;100118.00;;;21.01;82.43
82353;BME280;71954;47.430;18.920;2023-08-17T02:09:34;100117.81;;;21.03;82.43
82353;BME280;71954;47.430;18.920;2023-08-17T02:12:01;100120.88;;;21.00;82.47
82353;BME280;71954;47.430;18.920;2023-08-17T02:14:27;100121.47;;;20.95;83.11
82353;BME280;71954;47.430;18.920;2023-08-17T02:16:54;100125.63;;;20.98;83.53
82353;BME280;71954;47.430;18.920;2023-08-17T02:19:20;100112.13;;;20.98;83.64
82353;BME280;71954;47.430;18.920;2023-08-17T02:21:47;100119.22;;;20.99;84.00
82353;BME280;71954;47.430;18.920;2023-08-17T02:24:13;100113.81;;;20.99;83.88
82353;BME280;71954;47.430;18.920;2023-08-17T02:26:40;100118.19;;;21.00;84.09
82353;BME280;71954;47.430;18.920;2023-08-17T02:29:06;100123.22;;;21.03;84.02
82353;BME280;71954;47.430;18.920;2023-08-17T02:31:33;100127.56;;;21.04;83.83
82353;BME280;71954;47.430;18.920;2023-08-17T02:33:59;100122.84;;;21.06;83.78
82353;BME280;71954;47.430;18.920;2023-08-17T02:36:32;100117.91;;;21.09;83.71
82353;BME280;71954;47.430;18.920;2023-08-17T02:39:01;100112.78;;;21.15;83.70
82353;BME280;71954;47.430;18.920;2023-08-17T02:41:29;100116.16;;;21.17;83.29
82353;BME280;71954;47.430;18.920;2023-08-17T02:43:58;100119.22;;;21.13;83.06
82353;BME280;71954;47.430;18.920;2023-08-17T02:46:25;100117.19;;;21.16;82.97
82353;BME280;71954;47.430;18.920;2023-08-17T02:48:52;100113.44;;;21.17;83.05
82353;BME280;71954;47.430;18.920;2023-08-17T02:51:19;100106.19;;;21.17;82.92
82353;BME280;71954;47.430;18.920;2023-08-17T02:53:46;100108.53;;;21.20;83.09
82353;BME280;71954;47.430;18.920;2023-08-17T02:56:12;100115.97;;;21.18;82.70
82353;BME280;71954;47.430;18.920;2023-08-17T02:58:39;100110.44;;;21.11;82.79
82353;BME280;71954;47.430;18.920;2023-08-17T03:01:08;100107.94;;;21.10;83.19
82353;BME280;71954;47.430;18.920;2023-08-17T03:03:35;100108.31;;;21.07;83.15
82353;BME280;71954;47.430;18.920;2023-08-17T03:06:02;100103.09;;;21.05;83.64
82353;BME280;71954;47.430;18.920;2023-08-17T03:08:29;100103.28;;;21.04;83.50
82353;BME280;71954;47.430;18.920;2023-08-17T03:10:56;100107.88;;;21.03;83.66
82353;BME280;71954;47.430;18.920;2023-08-17T03:13:22;100111.09;;;20.99;83.33
82353;BME280;71954;47.430;18.920;2023-08-17T03:15:49;100105.25;;;20.95;83.77
82353;BME280;71954;47.430;18.920;2023-08-17T03:18:16;100112.34;;;20.96;83.37
82353;BME280;71954;47.430;18.920;2023-08-17T03:20:44;100108.97;;;20.94;83.61
82353;BME280;71954;47.430;18.920;2023-08-17T03:23:12;100113.19;;;20.97;83.59
82353;BME280;71954;47.430;18.920;2023-08-17T03:25:38;100114.03;;;20.97;83.33
82353;BME280;71954;47.430;18.920;2023-08-17T03:28:05;100104.44;;;20.95;83.61
82353;BME280;71954;47.430;18.920;2023-08-17T03:30:32;100106.94;;;20.96;83.41
82353;BME280;71954;47.430;18.920;2023-08-17T03:32:59;100096.31;;;20.95;83.13
82353;BME280;71954;47.430;18.920;2023-08-17T03:35:25;100097.75;;;20.91;83.22
82353;BME280;71954;47.430;18.920;2023-08-17T03:37:52;100101.72;;;20.80;83.52
82353;BME280;71954;47.430;18.920;2023-08-17T03:40:18;100108.50;;;20.76;83.26
82353;BME280;71954;47.430;18.920;2023-08-17T03:42:45;100108.34;;;20.78;83.20
82353;BME280;71954;47.430;18.920;2023-08-17T03:45:11;100095.88;;;20.77;83.52
82353;BME280;71954;47.430;18.920;2023-08-17T03:47:38;100097.06;;;20.74;82.68
82353;BME280;71954;47.430;18.920;2023-08-17T03:50:05;100091.03;;;20.72;83.41
82353;BME280;71954;47.430;18.920;2023-08-17T03:52:31;100092.06;;;20.71;83.03
82353;BME280;71954;47.430;18.920;2023-08-17T03:54:58;100101.06;;;20.63;82.94
82353;BME280;71954;47.430;18.920;2023-08-17T03:57:24;100098.75;;;20.60;82.97
82353;BME280;71954;47.430;18.920;2023-08-17T03:59:51;100100.97;;;20.57;82.90
82353;BME280;71954;47.430;18.920;2023-08-17T04:02:18;100104.88;;;20.54;83.05
82353;BME280;71954;47.430;18.920;2023-08-17T04:04:44;100097.53;;;20.48;83.08
82353;BME280;71954;47.430;18.920;2023-08-17T04:07:11;100105.03;;;20.38;83.10
82353;BME280;71954;47.430;18.920;2023-08-17T04:09:38;100106.25;;;20.36;83.27
82353;BME280;71954;47.430;18.920;2023-08-17T04:12:09;100107.25;;;20.35;83.22
82353;BME280;71954;47.430;18.920;2023-08-17T04:14:36;100103.91;;;20.33;83.54
82353;BME280;71954;47.430;18.920;2023-08-17T04:17:02;100111.16;;;20.32;83.49
82353;BME280;71954;47.430;18.920;2023-08-17T04:19:29;100120.44;;;20.29;83.54
82353;BME280;71954;47.430;18.920;2023-08-17T04:21:56;100116.06;;;20.28;83.71
82353;BME280;71954;47.430;18.920;2023-08-17T04:24:22;100120.44;;;20.29;83.46
82353;BME280;71954;47.430;18.920;2023-08-17T04:26:49;100118.56;;;20.30;83.94
82353;BME280;71954;47.430;18.920;2023-08-17T04:29:15;100114.69;;;20.33;83.84
82353;BME280;71954;47.430;18.920;2023-08-17T04:31:42;100110.97;;;20.34;83.84
82353;BME280;71954;47.430;18.920;2023-08-17T04:34:08;100112.28;;;20.38;84.37
82353;BME280;71954;47.430;18.920;2023-08-17T04:36:35;100112.75;;;20.41;84.20
82353;BME280;71954;47.430;18.920;2023-08-17T04:39:02;100115.75;;;20.46;84.16
82353;BME280;71954;47.430;18.920;2023-08-17T04:41:30;100108.94;;;20.50;84.33
82353;BME280;71954;47.430;18.920;2023-08-17T04:43:57;100111.75;;;20.57;84.03
82353;BME280;71954;47.430;18.920;2023-08-17T04:46:24;100109.53;;;20.60;84.07
82353;BME280;71954;47.430;18.920;2023-08-17T04:48:50;100118.94;;;20.64;84.52
82353;BME280;71954;47.430;18.920;2023-08-17T04:51:17;100121.91;;;20.69;84.22
82353;BME280;71954;47.430;18.920;2023-08-17T04:53:43;100119.03;;;20.71;83.86
82353;BME280;71954;47.430;18.920;2023-08-17T04:56:10;100115.50;;;20.70;84.39
82353;BME280;71954;47.430;18.920;2023-08-17T04:58:36;100124.78;;;20.68;84.39
82353;BME280;71954;47.430;18.920;2023-08-17T05:01:03;100125.00;;;20.66;84.40
82353;BME280;71954;47.430;18.920;2023-08-17T05:03:29;100125.28;;;20.71;84.84
82353;BME280;71954;47.430;18.920;2023-08-17T05:05:59;100123.22;;;20.74;85.00
82353;BME280;71954;47.430;18.920;2023-08-17T05:08:26;100124.13;;;20.81;84.70
82353;BME280;71954;47.430;18.920;2023-08-17T05:10:52;100116.31;;;20.86;85.23
82353;BME280;71954;47.430;18.920;2023-08-17T05:13:19;100122.47;;;21.09;84.79
82353;BME280;71954;47.430;18.920;2023-08-17T05:15:46;100119.63;;;21.46;84.32
82353;BME280;71954;47.430;18.920;2023-08-17T05:18:12;100109.91;;;21.67;84.48
82353;BME280;71954;47.430;18.920;2023-08-17T05:20:39;100109.09;;;21.87;83.49
82353;BME280;71954;47.430;18.920;2023-08-17T05:23:05;100115.22;;;22.17;82.32
82353;BME280;71954;47.430;18.920;2023-08-17T05:25:32;100105.47;;;22.23;82.11
82353;BME280;71954;47.430;18.920;2023-08-17T05:27:58;100103.88;;;22.28;82.16
82353;BME280;71954;47.430;18.920;2023-08-17T05:30:25;100103.06;;;22.35;81.82
82353;BME280;71954;47.430;18.920;2023-08-17T05:32:51;100117.22;;;22.37;81.13
82353;BME280;71954;47.430;18.920;2023-08-17T05:35:18;100119.75;;;22.38;81.07
82353;BME280;71954;47.430;18.920;2023-08-17T05:37:45;100115.16;;;22.39;81.06
82353;BME280;71954;47.430;18.920;2023-08-17T05:40:12;100105.00;;;22.41;80.79
82353;BME280;71954;47.430;18.920;2023-08-17T05:42:39;100107.06;;;22.39;80.99
82353;BME280;71954;47.430;18.920;2023-08-17T05:45:05;100109.75;;;22.39;80.93
82353;BME280;71954;47.430;18.920;2023-08-17T05:47:32;100113.13;;;22.41;81.42
82353;BME280;71954;47.430;18.920;2023-08-17T05:49:58;100114.78;;;22.42;81.53
82353;BME280;71954;47.430;18.920;2023-08-17T05:52:25;100112.72;;;22.44;81.56
82353;BME280;71954;47.430;18.920;2023-08-17T05:54:51;100107.09;;;22.45;81.61
82353;BME280;71954;47.430;18.920;2023-08-17T05:57:18;100114.38;;;22.45;81.64
82353;BME280;71954;47.430;18.920;2023-08-17T05:59:45;100117.31;;;22.50;81.35
82353;BME280;71954;47.430;18.920;2023-08-17T06:02:11;100109.25;;;22.56;81.45
82353;BME280;71954;47.430;18.920;2023-08-17T06:04:38;100106.22;;;22.66;81.31
82353;BME280;71954;47.430;18.920;2023-08-17T06:07:05;100103.75;;;22.71;80.76
82353;BME280;71954;47.430;18.920;2023-08-17T06:09:32;100108.19;;;22.79;80.61
82353;BME280;71954;47.430;18.920;2023-08-17T06:11:59;100107.00;;;22.88;80.71
82353;BME280;71954;47.430;18.920;2023-08-17T06:14:25;100108.31;;;22.98;80.65
82353;BME280;71954;47.430;18.920;2023-08-17T06:16:52;100102.72;;;23.06;80.50
82353;BME280;71954;47.430;18.920;2023-08-17T06:19:18;100099.88;;;23.15;80.35
82353;BME280;71954;47.430;18.920;2023-08-17T06:21:45;100090.13;;;23.33;80.50
82353;BME280;71954;47.430;18.920;2023-08-17T06:24:11;100095.69;;;23.66;80.46
82353;BME280;71954;47.430;18.920;2023-08-17T06:26:38;100101.59;;;24.36;78.13
82353;BME280;71954;47.430;18.920;2023-08-17T06:29:05;100095.09;;;24.89;76.06
82353;BME280;71954;47.430;18.920;2023-08-17T06:31:32;100099.31;;;25.36;71.69
82353;BME280;71954;47.430;18.920;2023-08-17T06:33:58;100103.13;;;25.22;69.74
82353;BME280;71954;47.430;18.920;2023-08-17T06:36:25;100091.03;;;25.11;69.23
82353;BME280;71954;47.430;18.920;2023-08-17T06:38:52;100086.28;;;24.87;70.45
82353;BME280;71954;47.430;18.920;2023-08-17T06:41:19;100084.56;;;25.12;70.86
82353;BME280;71954;47.430;18.920;2023-08-17T06:43:45;100082.69;;;25.13;71.42
82353;BME280;71954;47.430;18.920;2023-08-17T06:46:12;100083.53;;;25.13;71.43
82353;BME280;71954;47.430;18.920;2023-08-17T06:48:39;100086.84;;;25.16;72.07
82353;BME280;71954;47.430;18.920;2023-08-17T06:51:05;100084.16;;;25.09;71.17
82353;BME280;71954;47.430;18.920;2023-08-17T06:53:33;100082.06;;;25.04;71.24
82353;BME280;71954;47.430;18.920;2023-08-17T06:55:59;100077.25;;;25.13;69.88
82353;BME280;71954;47.430;18.920;2023-08-17T06:58:28;100080.75;;;25.20;66.73
82353;BME280;71954;47.430;18.920;2023-08-17T07:00:55;100078.84;;;25.27;71.27
82353;BME280;71954;47.430;18.920;2023-08-17T07:03:22;100084.50;;;25.26;68.74
82353;BME280;71954;47.430;18.920;2023-08-17T07:05:48;100084.53;;;25.19;69.13
82353;BME280;71954;47.430;18.920;2023-08-17T07:08:15;100094.41;;;25.07;71.16
82353;BME280;71954;47.430;18.920;2023-08-17T07:10:43;100092.56;;;25.01;71.17
82353;BME280;71954;47.430;18.920;2023-08-17T07:13:10;100100.09;;;24.92;72.58
82353;BME280;71954;47.430;18.920;2023-08-17T07:15:36;100105.72;;;24.78;72.82
82353;BME280;71954;47.430;18.920;2023-08-17T07:18:03;100101.38;;;24.70;72.06
82353;BME280;71954;47.430;18.920;2023-08-17T07:20:30;100101.19;;;24.52;71.92
82353;BME280;71954;47.430;18.920;2023-08-17T07:22:57;100107.25;;;24.41;73.21
82353;BME280;71954;47.430;18.920;2023-08-17T07:25:23;100108.09;;;24.28;74.23
82353;BME280;71954;47.430;18.920;2023-08-17T07:27:50;100102.03;;;24.19;74.30
82353;BME280;71954;47.430;18.920;2023-08-17T07:30:16;100095.53;;;24.14;74.42
82353;BME280;71954;47.430;18.920;2023-08-17T07:32:43;100098.69;;;24.11;74.14
82353;BME280;71954;47.430;18.920;2023-08-17T07:35:10;100089.88;;;24.02;74.62
82353;BME280;71954;47.430;18.920;2023-08-17T07:37:36;100090.09;;;23.94;75.40
82353;BME280;71954;47.430;18.920;2023-08-17T07:40:03;100093.00;;;23.86;76.05
82353;BME280;71954;47.430;18.920;2023-08-17T07:42:30;100101.53;;;23.83;76.70
82353;BME280;71954;47.430;18.920;2023-08-17T07:44:57;100100.50;;;23.77;76.40
82353;BME280;71954;47.430;18.920;2023-08-17T07:47:24;100103.63;;;23.74;77.05
82353;BME280;71954;47.430;18.920;2023-08-17T07:49:52;100108.00;;;23.69;76.35
82353;BME280;71954;47.430;18.920;2023-08-17T07:52:18;100103.81;;;23.66;77.19
82353;BME280;71954;47.430;18.920;2023-08-17T07:54:45;100113.00;;;23.72;77.64
82353;BME280;71954;47.430;18.920;2023-08-17T07:57:12;100109.66;;;23.76;75.78
82353;BME280;71954;47.430;18.920;2023-08-17T07:59:38;100117.41;;;23.79;76.36
82353;BME280;71954;47.430;18.920;2023-08-17T08:02:05;100108.22;;;23.80;72.84
82353;BME280;71954;47.430;18.920;2023-08-17T08:04:32;100119.09;;;23.87;76.74
82353;BME280;71954;47.430;18.920;2023-08-17T08:06:59;100109.28;;;23.92;75.98
82353;BME280;71954;47.430;18.920;2023-08-17T08:09:25;100108.88;;;23.96;76.32
82353;BME280;71954;47.430;18.920;2023-08-17T08:11:52;100101.38;;;23.98;74.43
82353;BME280;71954;47.430;18.920;2023-08-17T08:14:18;100105.53;;;24.00;76.03
82353;BME280;71954;47.430;18.920;2023-08-17T08:16:45;100105.13;;;23.97;72.30
82353;BME280;71954;47.430;18.920;2023-08-17T08:19:12;100102.81;;;24.00;73.28
82353;BME280;71954;47.430;18.920;2023-08-17T08:21:38;100104.94;;;24.05;74.60
82353;BME280;71954;47.430;18.920;2023-08-17T08:24:05;100101.56;;;24.03;74.16
82353;BME280;71954;47.430;18.920;2023-08-17T08:26:43;100102.81;;;24.07;74.76
82353;BME280;71954;47.430;18.920;2023-08-17T08:29:10;100105.13;;;24.10;73.20
82353;BME280;71954;47.430;18.920;2023-08-17T08:31:36;100103.03;;;24.12;74.31
82353;BME280;71954;47.430;18.920;2023-08-17T08:34:03;100105.56;;;24.20;74.29
82353;BME280;71954;47.430;18.920;2023-08-17T08:36:30;100103.50;;;24.28;71.21
82353;BME280;71954;47.430;18.920;2023-08-17T08:38:56;100108.94;;;24.35;70.49
82353;BME280;71954;47.430;18.920;2023-08-17T08:41:24;100109.75;;;24.42;66.75
82353;BME280;71954;47.430;18.920;2023-08-17T08:43:53;100106.81;;;24.50;69.13
82353;BME280;71954;47.430;18.920;2023-08-17T08:46:20;100098.66;;;24.57;66.60
82353;BME280;71954;47.430;18.920;2023-08-17T08:48:50;100104.94;;;24.57;72.01
82353;BME280;71954;47.430;18.920;2023-08-17T08:51:23;100092.84;;;24.53;70.39
82353;BME280;71954;47.430;18.920;2023-08-17T08:53:53;100096.34;;;24.60;74.06
82353;BME280;71954;47.430;18.920;2023-08-17T08:56:24;100106.19;;;24.61;68.57
82353;BME280;71954;47.430;18.920;2023-08-17T08:58:52;100099.72;;;24.62;65.77
82353;BME280;71954;47.430;18.920;2023-08-17T09:01:20;100095.94;;;24.63;65.32
82353;BME280;71954;47.430;18.920;2023-08-17T09:03:48;100100.09;;;24.66;65.11
82353;BME280;71954;47.430;18.920;2023-08-17T09:06:16;100105.13;;;24.76;64.33
82353;BME280;71954;47.430;18.920;2023-08-17T09:08:43;100098.41;;;24.85;64.26
82353;BME280;71954;47.430;18.920;2023-08-17T09:11:10;100110.31;;;24.97;64.78
82353;BME280;71954;47.430;18.920;2023-08-17T09:13:37;100100.69;;;25.07;63.56
82353;BME280;71954;47.430;18.920;2023-08-17T09:16:04;100097.91;;;25.14;62.68
82353;BME280;71954;47.430;18.920;2023-08-17T09:18:34;100102.31;;;25.15;62.70
82353;BME280;71954;47.430;18.920;2023-08-17T09:21:04;100096.25;;;25.20;66.88
82353;BME280;71954;47.430;18.920;2023-08-17T09:23:31;100096.44;;;25.18;62.99
82353;BME280;71954;47.430;18.920;2023-08-17T09:26:08;100087.88;;;25.14;67.51
82353;BME280;71954;47.430;18.920;2023-08-17T09:28:38;100088.13;;;25.13;64.55
82353;BME280;71954;47.430;18.920;2023-08-17T09:31:05;100092.47;;;25.14;63.35
82353;BME280;71954;47.430;18.920;2023-08-17T09:33:32;100085.78;;;25.17;67.51
82353;BME280;71954;47.430;18.920;2023-08-17T09:36:00;100088.69;;;25.22;63.69
82353;BME280;71954;47.430;18.920;2023-08-17T09:38:27;100085.78;;;25.23;62.69
82353;BME280;71954;47.430;18.920;2023-08-17T09:40:55;100076.38;;;25.26;66.36
82353;BME280;71954;47.430;18.920;2023-08-17T09:43:23;100079.84;;;25.33;68.00
82353;BME280;71954;47.430;18.920;2023-08-17T09:45:54;100073.16;;;25.35;66.88
82353;BME280;71954;47.430;18.920;2023-08-17T09:48:20;100070.63;;;25.40;68.92
82353;BME280;71954;47.430;18.920;2023-08-17T09:50:48;100066.00;;;25.47;66.20
82353;BME280;71954;47.430;18.920;2023-08-17T09:53:17;100065.34;;;25.52;61.29
82353;BME280;71954;47.430;18.920;2023-08-17T09:55:47;100066.38;;;25.58;66.68
82353;BME280;71954;47.430;18.920;2023-08-17T09:58:14;100069.28;;;25.63;64.20
82353;BME280;71954;47.430;18.920;2023-08-17T10:00:45;100059.81;;;25.72;61.92
82353;BME280;71954;47.430;18.920;2023-08-17T10:03:17;100052.44;;;25.79;60.38
82353;BME280;71954;47.430;18.920;2023-08-17T10:05:47;100060.31;;;25.87;67.35
82353;BME280;71954;47.430;18.920;2023-08-17T10:08:17;100062.16;;;25.93;65.42
82353;BME280;71954;47.430;18.920;2023-08-17T10:10:45;100055.44;;;25.96;62.52
82353;BME280;71954;47.430;18.920;2023-08-17T10:13:16;100054.09;;;26.05;63.99
82353;BME280;71954;47.430;18.920;2023-08-17T10:15:53;100054.47;;;26.15;66.50
82353;BME280;71954;47.430;18.920;2023-08-17T10:21:13;100048.69;;;26.29;66.00
82353;BME280;71954;47.430;18.920;2023-08-17T10:23:44;100046.13;;;26.34;59.44
82353;BME280;71954;47.430;18.920;2023-08-17T10:26:11;100048.84;;;26.34;59.23
82353;BME280;71954;47.430;18.920;2023-08-17T10:28:38;100055.69;;;26.44;59.33
82353;BME280;71954;47.430;18.920;2023-08-17T10:31:05;100038.44;;;26.50;58.95
82353;BME280;71954;47.430;18.920;2023-08-17T10:33:37;100047.66;;;26.49;58.42
82353;BME280;71954;47.430;18.920;2023-08-17T10:36:06;100051.84;;;26.51;57.12
82353;BME280;71954;47.430;18.920;2023-08-17T10:38:33;100047.13;;;26.58;59.15
82353;BME280;71954;47.430;18.920;2023-08-17T10:41:11;100043.28;;;26.66;57.84
82353;BME280;71954;47.430;18.920;2023-08-17T10:43:59;100044.00;;;26.80;57.13
82353;BME280;71954;47.430;18.920;2023-08-17T10:46:36;100044.56;;;26.88;55.93
82353;BME280;71954;47.430;18.920;2023-08-17T10:49:04;100049.81;;;26.83;56.18
82353;BME280;71954;47.430;18.920;2023-08-17T10:51:34;100045.16;;;26.90;55.78
82353;BME280;71954;47.430;18.920;2023-08-17T10:54:03;100035.34;;;26.83;57.53
82353;BME280;71954;47.430;18.920;2023-08-17T10:56:30;100040.75;;;26.89;56.24
82353;BME280;71954;47.430;18.920;2023-08-17T10:59:24;100053.03;;;26.98;56.35
82353;BME280;71954;47.430;18.920;2023-08-17T11:01:51;100036.44;;;27.00;55.95
82353;BME280;71954;47.430;18.920;2023-08-17T11:04:18;100041.72;;;26.95;57.21
82353;BME280;71954;47.430;18.920;2023-08-17T11:06:45;100045.38;;;26.89;57.07
82353;BME280;71954;47.430;18.920;2023-08-17T11:09:12;100044.09;;;26.91;56.80
82353;BME280;71954;47.430;18.920;2023-08-17T11:11:42;100035.91;;;26.91;57.37
82353;BME280;71954;47.430;18.920;2023-08-17T11:14:09;100032.13;;;26.92;58.67
82353;BME280;71954;47.430;18.920;2023-08-17T11:16:36;100038.19;;;26.94;59.15
82353;BME280;71954;47.430;18.920;2023-08-17T11:19:02;100038.41;;;26.93;57.34
82353;BME280;71954;47.430;18.920;2023-08-17T11:21:29;100040.13;;;26.87;55.96
82353;BME280;71954;47.430;18.920;2023-08-17T11:23:56;100036.38;;;26.88;57.54
82353;BME280;71954;47.430;18.920;2023-08-17T11:26:24;100036.38;;;26.88;57.17
82353;BME280;71954;47.430;18.920;2023-08-17T11:28:51;100041.03;;;26.81;57.43
82353;BME280;71954;47.430;18.920;2023-08-17T11:31:18;100030.81;;;26.77;58.37
82353;BME280;71954;47.430;18.920;2023-08-17T11:33:44;100032.88;;;26.81;57.32
82353;BME280;71954;47.430;18.920;2023-08-17T11:36:14;100035.97;;;26.85;59.82
82353;BME280;71954;47.430;18.920;2023-08-17T11:38:42;100037.25;;;26.82;57.17
82353;BME280;71954;47.430;18.920;2023-08-17T11:41:09;100033.66;;;26.88;58.65
82353;BME280;71954;47.430;18.920;2023-08-17T11:43:43;100044.97;;;26.85;58.42
82353;BME280;71954;47.430;18.920;2023-08-17T11:46:11;100042.72;;;26.82;57.06
82353;BME280;71954;47.430;18.920;2023-08-17T11:48:38;100036.94;;;26.72;57.27
82353;BME280;71954;47.430;18.920;2023-08-17T11:51:05;100032.09;;;26.74;57.03
82353;BME280;71954;47.430;18.920;2023-08-17T11:53:36;100034.44;;;26.70;56.71
82353;BME280;71954;47.430;18.920;2023-08-17T11:56:03;100027.56;;;26.68;56.29
82353;BME280;71954;47.430;18.920;2023-08-17T11:58:42;100035.28;;;26.71;55.76
82353;BME280;71954;47.430;18.920;2023-08-17T12:01:10;100029.81;;;26.71;56.42
82353;BME280;71954;47.430;18.920;2023-08-17T12:03:39;100023.94;;;26.74;55.80
82353;BME280;71954;47.430;18.920;2023-08-17T12:06:08;100016.88;;;26.85;55.68
82353;BME280;71954;47.430;18.920;2023-08-17T12:08:35;100012.00;;;26.93;57.37
82353;BME280;71954;47.430;18.920;2023-08-17T12:11:02;100013.81;;;26.99;55.22
82353;BME280;71954;47.430;18.920;2023-08-17T12:13:32;100009.69;;;27.08;55.71
82353;BME280;71954;47.430;18.920;2023-08-17T12:15:59;100016.66;;;27.23;56.59
82353;BME280;71954;47.430;18.920;2023-08-17T12:18:25;100006.31;;;27.25;54.70
82353;BME280;71954;47.430;18.920;2023-08-17T12:20:53;100007.91;;;27.32;54.39
82353;BME280;71954;47.430;18.920;2023-08-17T12:23:20;100001.03;;;27.30;53.55
82353;BME280;71954;47.430;18.920;2023-08-17T12:25:52;100011.94;;;27.30;55.65
82353;BME280;71954;47.430;18.920;2023-08-17T12:28:19;100001.47;;;27.27;55.09
82353;BME280;71954;47.430;18.920;2023-08-17T12:30:46;99994.22;;;27.21;54.00
82353;BME280;71954;47.430;18.920;2023-08-17T12:33:12;99995.59;;;27.30;54.72
82353;BME280;71954;47.430;18.920;2023-08-17T12:35:39;99997.13;;;27.37;53.44
82353;BME280;71954;47.430;18.920;2023-08-17T12:38:06;99991.69;;;27.37;54.08
82353;BME280;71954;47.430;18.920;2023-08-17T12:40:32;99980.09;;;27.42;53.98
82353;BME280;71954;47.430;18.920;2023-08-17T12:42:59;99975.09;;;27.39;56.42
82353;BME280;71954;47.430;18.920;2023-08-17T12:45:26;99974.03;;;27.40;54.19
82353;BME280;71954;47.430;18.920;2023-08-17T12:47:54;99969.88;;;27.37;53.92